sensor_id;sensor_type;location;lat;lon;timestamp;P1;durP1;ratioP1;P2;durP2;ratioP2
39346;SDS011;26262;49.836;6.632;2023-01-10T00:01:49;2.08;;;0.68;;
39346;SDS011;26262;49.836;6.632;2023-01-10T00:04:15;0.70;;;0.50;;
39346;SDS011;26262;49.836;6.632;2023-01-10T00:06:41;2.67;;;0.43;;
39346;SDS011;26262;49.836;6.632;2023-01-10T00:09:06;5.32;;;1.85;;
39346;SDS011;26262;49.836;6.632;2023-01-10T00:11:33;1.58;;;0.55;;
39346;SDS011;26262;49.836;6.632;2023-01-10T00:14:17;2.50;;;0.90;;
39346;SDS011;26262;49.836;6.632;2023-01-10T00:16:42;1.05;;;0.57;;
39346;SDS011;26262;49.836;6.632;2023-01-10T00:19:08;2.35;;;0.77;;
39346;SDS011;26262;49.836;6.632;2023-01-10T00:21:35;2.05;;;0.70;;
39346;SDS011;26262;49.836;6.632;2023-01-10T00:24:01;2.05;;;0.90;;
39346;SDS011;26262;49.836;6.632;2023-01-10T00:26:40;1.30;;;0.60;;
39346;SDS011;26262;49.836;6.632;2023-01-10T00:29:07;2.95;;;1.25;;
39346;SDS011;26262;49.836;6.632;2023-01-10T00:31:32;1.60;;;0.82;;
39346;SDS011;26262;49.836;6.632;2023-01-10T00:33:58;4.20;;;0.77;;
39346;SDS011;26262;49.836;6.632;2023-01-10T00:36:23;2.28;;;0.70;;
39346;SDS011;26262;49.836;6.632;2023-01-10T00:38:49;1.02;;;0.75;;
39346;SDS011;26262;49.836;6.632;2023-01-10T00:41:14;2.42;;;0.98;;
39346;SDS011;26262;49.836;6.632;2023-01-10T00:43:58;2.55;;;1.10;;
39346;SDS011;26262;49.836;6.632;2023-01-10T00:46:25;3.08;;;0.68;;
39346;SDS011;26262;49.836;6.632;2023-01-10T00:48:51;2.53;;;0.60;;
39346;SDS011;26262;49.836;6.632;2023-01-10T00:51:17;5.43;;;0.90;;
39346;SDS011;26262;49.836;6.632;2023-01-10T00:53:42;2.85;;;0.70;;
39346;SDS011;26262;49.836;6.632;2023-01-10T00:56:08;1.25;;;0.73;;
39346;SDS011;26262;49.836;6.632;2023-01-10T00:58:34;1.90;;;0.70;;
39346;SDS011;26262;49.836;6.632;2023-01-10T01:00:59;1.83;;;0.77;;
39346;SDS011;26262;49.836;6.632;2023-01-10T01:03:25;1.52;;;0.90;;
39346;SDS011;26262;49.836;6.632;2023-01-10T01:05:50;2.67;;;0.77;;
39346;SDS011;26262;49.836;6.632;2023-01-10T01:08:17;3.38;;;1.08;;
39346;SDS011;26262;49.836;6.632;2023-01-10T01:10:43;2.78;;;0.80;;
39346;SDS011;26262;49.836;6.632;2023-01-10T01:13:11;2.70;;;1.00;;
39346;SDS011;26262;49.836;6.632;2023-01-10T01:15:40;4.60;;;0.80;;
39346;SDS011;26262;49.836;6.632;2023-01-10T01:18:05;4.80;;;0.80;;
39346;SDS011;26262;49.836;6.632;2023-01-10T01:20:32;3.57;;;0.70;;
39346;SDS011;26262;49.836;6.632;2023-01-10T01:22:58;2.47;;;1.15;;
39346;SDS011;26262;49.836;6.632;2023-01-10T01:25:25;2.00;;;0.80;;
39346;SDS011;26262;49.836;6.632;2023-01-10T01:27:50;3.05;;;0.80;;
39346;SDS011;26262;49.836;6.632;2023-01-10T01:30:16;1.35;;;0.68;;
39346;SDS011;26262;49.836;6.632;2023-01-10T01:32:41;2.13;;;0.90;;
39346;SDS011;26262;49.836;6.632;2023-01-10T01:35:07;1.88;;;0.68;;
39346;SDS011;26262;49.836;6.632;2023-01-10T01:37:35;1.13;;;0.60;;
39346;SDS011;26262;49.836;6.632;2023-01-10T01:40:00;2.25;;;0.88;;
39346;SDS011;26262;49.836;6.632;2023-01-10T01:42:30;1.30;;;0.60;;
39346;SDS011;26262;49.836;6.632;2023-01-10T01:47:32;2.30;;;0.50;;
39346;SDS011;26262;49.836;6.632;2023-01-10T01:50:19;1.70;;;0.60;;
39346;SDS011;26262;49.836;6.632;2023-01-10T01:52:56;2.80;;;0.80;;
39346;SDS011;26262;49.836;6.632;2023-01-10T01:55:24;1.27;;;0.60;;
39346;SDS011;26262;49.836;6.632;2023-01-10T01:57:53;2.50;;;0.52;;
39346;SDS011;26262;49.836;6.632;2023-01-10T02:02:49;1.42;;;0.80;;
39346;SDS011;26262;49.836;6.632;2023-01-10T02:05:18;2.83;;;0.75;;
39346;SDS011;26262;49.836;6.632;2023-01-10T02:07:49;1.45;;;0.60;;
39346;SDS011;26262;49.836;6.632;2023-01-10T02:10:18;1.92;;;0.55;;
39346;SDS011;26262;49.836;6.632;2023-01-10T02:12:50;0.93;;;0.63;;
39346;SDS011;26262;49.836;6.632;2023-01-10T02:15:17;4.70;;;0.77;;
39346;SDS011;26262;49.836;6.632;2023-01-10T02:17:45;2.97;;;1.00;;
39346;SDS011;26262;49.836;6.632;2023-01-10T02:20:12;1.63;;;0.90;;
39346;SDS011;26262;49.836;6.632;2023-01-10T02:40:33;4.38;;;1.02;;
39346;SDS011;26262;49.836;6.632;2023-01-10T02:45:55;5.80;;;1.42;;
39346;SDS011;26262;49.836;6.632;2023-01-10T02:48:24;4.40;;;1.40;;
39346;SDS011;26262;49.836;6.632;2023-01-10T02:50:52;5.15;;;1.33;;
39346;SDS011;26262;49.836;6.632;2023-01-10T02:56:20;8.52;;;1.40;;
39346;SDS011;26262;49.836;6.632;2023-01-10T03:01:43;6.45;;;2.13;;
39346;SDS011;26262;49.836;6.632;2023-01-10T03:10:41;2.88;;;1.55;;
39346;SDS011;26262;49.836;6.632;2023-01-10T03:12:54;3.88;;;1.50;;
39346;SDS011;26262;49.836;6.632;2023-01-10T03:15:31;5.78;;;2.03;;
39346;SDS011;26262;49.836;6.632;2023-01-10T03:18:00;3.35;;;1.38;;
39346;SDS011;26262;49.836;6.632;2023-01-10T03:20:28;3.95;;;1.77;;
39346;SDS011;26262;49.836;6.632;2023-01-10T03:22:58;4.03;;;1.73;;
39346;SDS011;26262;49.836;6.632;2023-01-10T03:25:29;6.15;;;1.70;;
39346;SDS011;26262;49.836;6.632;2023-01-10T03:28:09;3.83;;;1.48;;
39346;SDS011;26262;49.836;6.632;2023-01-10T03:30:51;6.18;;;1.90;;
39346;SDS011;26262;49.836;6.632;2023-01-10T03:33:38;5.90;;;1.55;;
39346;SDS011;26262;49.836;6.632;2023-01-10T03:39:06;5.43;;;1.60;;
39346;SDS011;26262;49.836;6.632;2023-01-10T03:42:01;8.77;;;1.98;;
39346;SDS011;26262;49.836;6.632;2023-01-10T03:44:39;4.78;;;1.63;;
39346;SDS011;26262;49.836;6.632;2023-01-10T03:47:11;6.13;;;1.70;;
39346;SDS011;26262;49.836;6.632;2023-01-10T03:49:38;6.30;;;1.88;;
39346;SDS011;26262;49.836;6.632;2023-01-10T03:52:08;7.00;;;1.70;;
39346;SDS011;26262;49.836;6.632;2023-01-10T03:54:36;6.05;;;1.90;;
39346;SDS011;26262;49.836;6.632;2023-01-10T03:57:01;9.13;;;1.85;;
39346;SDS011;26262;49.836;6.632;2023-01-10T03:59:27;9.90;;;2.13;;
39346;SDS011;26262;49.836;6.632;2023-01-10T04:01:54;5.50;;;1.73;;
39346;SDS011;26262;49.836;6.632;2023-01-10T04:04:20;8.88;;;2.22;;
39346;SDS011;26262;49.836;6.632;2023-01-10T04:06:46;9.68;;;1.70;;
39346;SDS011;26262;49.836;6.632;2023-01-10T04:09:11;8.55;;;3.00;;
39346;SDS011;26262;49.836;6.632;2023-01-10T04:11:37;7.90;;;1.70;;
39346;SDS011;26262;49.836;6.632;2023-01-10T04:14:03;7.95;;;2.58;;
39346;SDS011;26262;49.836;6.632;2023-01-10T04:16:28;6.72;;;1.80;;
39346;SDS011;26262;49.836;6.632;2023-01-10T04:18:54;10.63;;;2.33;;
39346;SDS011;26262;49.836;6.632;2023-01-10T04:21:20;8.20;;;1.80;;
39346;SDS011;26262;49.836;6.632;2023-01-10T04:23:45;9.60;;;1.90;;
39346;SDS011;26262;49.836;6.632;2023-01-10T04:26:11;9.52;;;2.35;;
39346;SDS011;26262;49.836;6.632;2023-01-10T04:28:36;9.88;;;3.08;;
39346;SDS011;26262;49.836;6.632;2023-01-10T04:31:02;7.97;;;2.15;;
39346;SDS011;26262;49.836;6.632;2023-01-10T04:33:28;9.68;;;2.30;;
39346;SDS011;26262;49.836;6.632;2023-01-10T04:35:53;5.25;;;1.58;;
39346;SDS011;26262;49.836;6.632;2023-01-10T04:38:19;6.85;;;1.80;;
39346;SDS011;26262;49.836;6.632;2023-01-10T04:40:51;10.00;;;2.30;;
39346;SDS011;26262;49.836;6.632;2023-01-10T04:43:18;9.50;;;2.00;;
39346;SDS011;26262;49.836;6.632;2023-01-10T04:45:43;8.38;;;2.00;;
39346;SDS011;26262;49.836;6.632;2023-01-10T04:48:09;7.47;;;1.67;;
39346;SDS011;26262;49.836;6.632;2023-01-10T04:50:34;10.07;;;2.20;;
39346;SDS011;26262;49.836;6.632;2023-01-10T04:53:00;9.43;;;1.95;;
39346;SDS011;26262;49.836;6.632;2023-01-10T04:55:25;8.63;;;2.30;;
39346;SDS011;26262;49.836;6.632;2023-01-10T04:57:51;9.80;;;2.17;;
39346;SDS011;26262;49.836;6.632;2023-01-10T05:00:17;9.65;;;2.03;;
39346;SDS011;26262;49.836;6.632;2023-01-10T05:02:42;7.28;;;2.30;;
39346;SDS011;26262;49.836;6.632;2023-01-10T05:05:14;9.20;;;2.08;;
39346;SDS011;26262;49.836;6.632;2023-01-10T05:07:39;14.20;;;2.25;;
39346;SDS011;26262;49.836;6.632;2023-01-10T05:10:05;11.23;;;2.53;;
39346;SDS011;26262;49.836;6.632;2023-01-10T05:12:32;10.13;;;2.30;;
39346;SDS011;26262;49.836;6.632;2023-01-10T05:14:58;8.52;;;2.13;;
39346;SDS011;26262;49.836;6.632;2023-01-10T05:17:23;10.90;;;2.47;;
39346;SDS011;26262;49.836;6.632;2023-01-10T05:19:49;11.45;;;2.70;;
39346;SDS011;26262;49.836;6.632;2023-01-10T05:22:15;11.18;;;2.63;;
39346;SDS011;26262;49.836;6.632;2023-01-10T05:24:40;8.18;;;2.08;;
39346;SDS011;26262;49.836;6.632;2023-01-10T05:27:06;12.48;;;2.33;;
39346;SDS011;26262;49.836;6.632;2023-01-10T05:29:32;7.70;;;2.33;;
39346;SDS011;26262;49.836;6.632;2023-01-10T05:31:58;10.23;;;2.58;;
39346;SDS011;26262;49.836;6.632;2023-01-10T05:34:23;10.18;;;2.47;;
39346;SDS011;26262;49.836;6.632;2023-01-10T05:36:49;7.93;;;2.28;;
39346;SDS011;26262;49.836;6.632;2023-01-10T05:39:15;9.25;;;2.25;;
39346;SDS011;26262;49.836;6.632;2023-01-10T05:41:40;12.40;;;2.25;;
39346;SDS011;26262;49.836;6.632;2023-01-10T05:44:06;14.10;;;2.70;;
39346;SDS011;26262;49.836;6.632;2023-01-10T05:46:32;15.02;;;2.83;;
39346;SDS011;26262;49.836;6.632;2023-01-10T05:48:57;14.70;;;3.17;;
39346;SDS011;26262;49.836;6.632;2023-01-10T05:51:23;19.52;;;3.55;;
39346;SDS011;26262;49.836;6.632;2023-01-10T05:53:48;10.35;;;2.05;;
39346;SDS011;26262;49.836;6.632;2023-01-10T05:56:14;14.25;;;2.67;;
39346;SDS011;26262;49.836;6.632;2023-01-10T05:58:40;15.40;;;2.80;;
39346;SDS011;26262;49.836;6.632;2023-01-10T06:01:05;12.25;;;2.53;;
39346;SDS011;26262;49.836;6.632;2023-01-10T06:03:31;9.75;;;2.65;;
39346;SDS011;26262;49.836;6.632;2023-01-10T06:05:56;14.70;;;3.33;;
39346;SDS011;26262;49.836;6.632;2023-01-10T06:08:22;12.82;;;2.83;;
39346;SDS011;26262;49.836;6.632;2023-01-10T06:10:48;12.40;;;2.65;;
39346;SDS011;26262;49.836;6.632;2023-01-10T06:13:14;8.02;;;2.72;;
39346;SDS011;26262;49.836;6.632;2023-01-10T06:15:40;11.30;;;2.50;;
39346;SDS011;26262;49.836;6.632;2023-01-10T06:18:06;12.65;;;2.38;;
39346;SDS011;26262;49.836;6.632;2023-01-10T06:20:33;8.75;;;2.22;;
39346;SDS011;26262;49.836;6.632;2023-01-10T06:22:59;17.58;;;3.63;;
39346;SDS011;26262;49.836;6.632;2023-01-10T06:25:28;13.77;;;2.53;;
39346;SDS011;26262;49.836;6.632;2023-01-10T06:27:57;16.88;;;2.70;;
39346;SDS011;26262;49.836;6.632;2023-01-10T06:30:23;11.52;;;2.47;;
39346;SDS011;26262;49.836;6.632;2023-01-10T06:32:49;13.43;;;2.25;;
39346;SDS011;26262;49.836;6.632;2023-01-10T06:35:14;16.10;;;2.53;;
39346;SDS011;26262;49.836;6.632;2023-01-10T06:37:42;16.25;;;2.88;;
39346;SDS011;26262;49.836;6.632;2023-01-10T06:40:08;12.70;;;2.33;;
39346;SDS011;26262;49.836;6.632;2023-01-10T06:42:34;16.92;;;3.00;;
39346;SDS011;26262;49.836;6.632;2023-01-10T06:44:59;8.30;;;2.42;;
39346;SDS011;26262;49.836;6.632;2023-01-10T06:47:25;18.05;;;2.67;;
39346;SDS011;26262;49.836;6.632;2023-01-10T06:49:50;9.98;;;2.67;;
39346;SDS011;26262;49.836;6.632;2023-01-10T06:52:16;8.95;;;1.98;;
39346;SDS011;26262;49.836;6.632;2023-01-10T06:54:41;12.60;;;2.63;;
39346;SDS011;26262;49.836;6.632;2023-01-10T06:57:07;15.15;;;2.85;;
39346;SDS011;26262;49.836;6.632;2023-01-10T06:59:33;12.80;;;2.67;;
39346;SDS011;26262;49.836;6.632;2023-01-10T07:01:58;12.88;;;2.85;;
39346;SDS011;26262;49.836;6.632;2023-01-10T07:04:24;14.85;;;2.40;;
39346;SDS011;26262;49.836;6.632;2023-01-10T07:06:50;11.30;;;2.65;;
39346;SDS011;26262;49.836;6.632;2023-01-10T07:09:16;13.80;;;2.50;;
39346;SDS011;26262;49.836;6.632;2023-01-10T07:11:42;17.98;;;2.60;;
39346;SDS011;26262;49.836;6.632;2023-01-10T07:14:08;9.63;;;2.83;;
39346;SDS011;26262;49.836;6.632;2023-01-10T07:16:33;10.77;;;2.78;;
39346;SDS011;26262;49.836;6.632;2023-01-10T07:18:59;12.63;;;3.03;;
39346;SDS011;26262;49.836;6.632;2023-01-10T07:21:25;11.70;;;2.97;;
39346;SDS011;26262;49.836;6.632;2023-01-10T07:23:50;11.65;;;2.28;;
39346;SDS011;26262;49.836;6.632;2023-01-10T07:26:16;10.77;;;2.80;;
39346;SDS011;26262;49.836;6.632;2023-01-10T07:28:44;12.25;;;4.28;;
39346;SDS011;26262;49.836;6.632;2023-01-10T07:31:11;7.55;;;2.03;;
39346;SDS011;26262;49.836;6.632;2023-01-10T07:33:37;14.25;;;2.80;;
39346;SDS011;26262;49.836;6.632;2023-01-10T07:36:03;11.98;;;2.05;;
39346;SDS011;26262;49.836;6.632;2023-01-10T07:38:28;14.57;;;2.30;;
39346;SDS011;26262;49.836;6.632;2023-01-10T07:40:54;11.73;;;2.38;;
39346;SDS011;26262;49.836;6.632;2023-01-10T07:43:20;13.73;;;3.03;;
39346;SDS011;26262;49.836;6.632;2023-01-10T07:45:45;8.45;;;2.33;;
39346;SDS011;26262;49.836;6.632;2023-01-10T07:48:11;13.98;;;2.50;;
39346;SDS011;26262;49.836;6.632;2023-01-10T07:50:36;9.02;;;2.33;;
39346;SDS011;26262;49.836;6.632;2023-01-10T07:53:02;13.88;;;2.78;;
39346;SDS011;26262;49.836;6.632;2023-01-10T07:55:30;10.25;;;2.28;;
39346;SDS011;26262;49.836;6.632;2023-01-10T07:57:58;16.70;;;3.45;;
39346;SDS011;26262;49.836;6.632;2023-01-10T08:00:24;15.88;;;3.10;;
39346;SDS011;26262;49.836;6.632;2023-01-10T08:02:53;13.68;;;3.25;;
39346;SDS011;26262;49.836;6.632;2023-01-10T08:05:19;17.02;;;3.95;;
39346;SDS011;26262;49.836;6.632;2023-01-10T08:07:45;18.17;;;3.97;;
39346;SDS011;26262;49.836;6.632;2023-01-10T08:10:11;19.50;;;7.13;;
39346;SDS011;26262;49.836;6.632;2023-01-10T08:12:36;22.63;;;9.05;;
39346;SDS011;26262;49.836;6.632;2023-01-10T08:15:02;17.98;;;4.35;;
39346;SDS011;26262;49.836;6.632;2023-01-10T08:17:28;19.27;;;6.10;;
39346;SDS011;26262;49.836;6.632;2023-01-10T08:19:56;17.33;;;6.03;;
39346;SDS011;26262;49.836;6.632;2023-01-10T08:22:22;18.90;;;4.20;;
39346;SDS011;26262;49.836;6.632;2023-01-10T08:24:47;13.77;;;4.10;;
39346;SDS011;26262;49.836;6.632;2023-01-10T08:27:13;15.68;;;5.18;;
39346;SDS011;26262;49.836;6.632;2023-01-10T08:29:38;14.48;;;3.17;;
39346;SDS011;26262;49.836;6.632;2023-01-10T08:32:04;12.10;;;3.60;;
39346;SDS011;26262;49.836;6.632;2023-01-10T08:34:29;17.45;;;4.72;;
39346;SDS011;26262;49.836;6.632;2023-01-10T08:36:55;20.52;;;3.90;;
39346;SDS011;26262;49.836;6.632;2023-01-10T08:39:20;13.63;;;3.45;;
39346;SDS011;26262;49.836;6.632;2023-01-10T08:41:47;9.73;;;3.10;;
39346;SDS011;26262;49.836;6.632;2023-01-10T08:44:13;18.88;;;4.25;;
39346;SDS011;26262;49.836;6.632;2023-01-10T08:46:39;17.23;;;5.65;;
39346;SDS011;26262;49.836;6.632;2023-01-10T08:49:06;16.50;;;3.75;;
39346;SDS011;26262;49.836;6.632;2023-01-10T08:51:31;13.07;;;3.50;;
39346;SDS011;26262;49.836;6.632;2023-01-10T08:53:57;21.60;;;4.45;;
39346;SDS011;26262;49.836;6.632;2023-01-10T08:56:22;16.20;;;4.18;;
39346;SDS011;26262;49.836;6.632;2023-01-10T08:58:48;15.25;;;4.32;;
39346;SDS011;26262;49.836;6.632;2023-01-10T09:01:13;14.80;;;4.03;;
39346;SDS011;26262;49.836;6.632;2023-01-10T09:03:39;19.33;;;4.63;;
39346;SDS011;26262;49.836;6.632;2023-01-10T09:06:05;18.10;;;4.45;;
39346;SDS011;26262;49.836;6.632;2023-01-10T09:08:32;15.30;;;5.50;;
39346;SDS011;26262;49.836;6.632;2023-01-10T09:10:58;17.42;;;4.40;;
39346;SDS011;26262;49.836;6.632;2023-01-10T09:13:24;13.55;;;3.58;;
39346;SDS011;26262;49.836;6.632;2023-01-10T09:15:50;17.48;;;4.30;;
39346;SDS011;26262;49.836;6.632;2023-01-10T09:18:16;18.13;;;4.20;;
39346;SDS011;26262;49.836;6.632;2023-01-10T09:20:42;18.60;;;4.03;;
39346;SDS011;26262;49.836;6.632;2023-01-10T09:23:09;14.25;;;4.05;;
39346;SDS011;26262;49.836;6.632;2023-01-10T09:25:43;16.38;;;3.78;;
39346;SDS011;26262;49.836;6.632;2023-01-10T09:28:09;16.88;;;4.32;;
39346;SDS011;26262;49.836;6.632;2023-01-10T09:30:35;14.55;;;4.28;;
39346;SDS011;26262;49.836;6.632;2023-01-10T09:33:01;12.57;;;3.85;;
39346;SDS011;26262;49.836;6.632;2023-01-10T09:35:28;14.82;;;3.70;;
39346;SDS011;26262;49.836;6.632;2023-01-10T09:37:55;22.17;;;4.95;;
39346;SDS011;26262;49.836;6.632;2023-01-10T09:40:40;15.32;;;4.13;;
39346;SDS011;26262;49.836;6.632;2023-01-10T09:43:22;17.10;;;4.97;;
39346;SDS011;26262;49.836;6.632;2023-01-10T09:46:14;18.40;;;4.25;;
39346;SDS011;26262;49.836;6.632;2023-01-10T09:48:57;21.23;;;5.13;;
39346;SDS011;26262;49.836;6.632;2023-01-10T09:51:40;20.45;;;5.43;;
39346;SDS011;26262;49.836;6.632;2023-01-10T09:54:12;17.60;;;3.97;;
39346;SDS011;26262;49.836;6.632;2023-01-10T09:56:49;19.02;;;4.68;;
39346;SDS011;26262;49.836;6.632;2023-01-10T09:59:25;15.98;;;4.65;;
39346;SDS011;26262;49.836;6.632;2023-01-10T10:03:02;17.55;;;4.68;;
39346;SDS011;26262;49.836;6.632;2023-01-10T10:07:35;17.83;;;4.88;;
39346;SDS011;26262;49.836;6.632;2023-01-10T10:10:01;12.55;;;3.90;;
39346;SDS011;26262;49.836;6.632;2023-01-10T10:12:52;21.55;;;3.90;;
39346;SDS011;26262;49.836;6.632;2023-01-10T10:18:12;17.33;;;4.20;;
39346;SDS011;26262;49.836;6.632;2023-01-10T10:26:19;21.48;;;5.53;;
39346;SDS011;26262;49.836;6.632;2023-01-10T10:31:57;14.25;;;3.83;;
39346;SDS011;26262;49.836;6.632;2023-01-10T10:34:48;19.88;;;5.75;;
39346;SDS011;26262;49.836;6.632;2023-01-10T10:37:26;11.75;;;3.20;;
39346;SDS011;26262;49.836;6.632;2023-01-10T10:40:00;15.10;;;3.38;;
39346;SDS011;26262;49.836;6.632;2023-01-10T10:42:37;17.98;;;4.00;;
39346;SDS011;26262;49.836;6.632;2023-01-10T10:50:58;11.93;;;3.47;;
39346;SDS011;26262;49.836;6.632;2023-01-10T10:53:26;15.77;;;3.10;;
39346;SDS011;26262;49.836;6.632;2023-01-10T10:55:52;13.05;;;3.13;;
39346;SDS011;26262;49.836;6.632;2023-01-10T10:58:18;11.43;;;2.95;;
39346;SDS011;26262;49.836;6.632;2023-01-10T11:00:44;9.93;;;3.00;;
39346;SDS011;26262;49.836;6.632;2023-01-10T11:05:54;19.10;;;3.67;;
39346;SDS011;26262;49.836;6.632;2023-01-10T11:08:21;12.73;;;2.97;;
39346;SDS011;26262;49.836;6.632;2023-01-10T11:10:54;12.10;;;2.85;;
39346;SDS011;26262;49.836;6.632;2023-01-10T11:15:57;14.80;;;2.85;;
39346;SDS011;26262;49.836;6.632;2023-01-10T11:18:25;14.93;;;3.67;;
39346;SDS011;26262;49.836;6.632;2023-01-10T11:21:11;12.18;;;3.30;;
39346;SDS011;26262;49.836;6.632;2023-01-10T11:26:05;13.43;;;2.75;;
39346;SDS011;26262;49.836;6.632;2023-01-10T11:28:33;14.73;;;4.00;;
39346;SDS011;26262;49.836;6.632;2023-01-10T11:31:00;16.83;;;3.10;;
39346;SDS011;26262;49.836;6.632;2023-01-10T11:33:28;14.77;;;2.92;;
39346;SDS011;26262;49.836;6.632;2023-01-10T11:38:33;14.43;;;3.83;;
39346;SDS011;26262;49.836;6.632;2023-01-10T11:41:05;17.65;;;3.92;;
39346;SDS011;26262;49.836;6.632;2023-01-10T11:43:47;15.35;;;4.00;;
39346;SDS011;26262;49.836;6.632;2023-01-10T11:46:16;11.75;;;3.05;;
39346;SDS011;26262;49.836;6.632;2023-01-10T11:49:05;18.15;;;3.17;;
39346;SDS011;26262;49.836;6.632;2023-01-10T11:51:44;15.90;;;3.40;;
39346;SDS011;26262;49.836;6.632;2023-01-10T11:54:22;20.80;;;3.78;;
39346;SDS011;26262;49.836;6.632;2023-01-10T11:59:27;16.83;;;3.47;;
39346;SDS011;26262;49.836;6.632;2023-01-10T12:04:29;15.35;;;3.00;;
39346;SDS011;26262;49.836;6.632;2023-01-10T12:06:58;19.15;;;4.38;;
39346;SDS011;26262;49.836;6.632;2023-01-10T12:09:32;18.65;;;4.03;;
39346;SDS011;26262;49.836;6.632;2023-01-10T12:12:01;14.15;;;3.00;;
39346;SDS011;26262;49.836;6.632;2023-01-10T12:14:45;14.73;;;4.97;;
39346;SDS011;26262;49.836;6.632;2023-01-10T12:17:16;18.35;;;4.47;;
39346;SDS011;26262;49.836;6.632;2023-01-10T12:19:44;17.17;;;3.20;;
39346;SDS011;26262;49.836;6.632;2023-01-10T12:22:09;15.43;;;3.65;;
39346;SDS011;26262;49.836;6.632;2023-01-10T12:24:39;22.63;;;3.58;;
39346;SDS011;26262;49.836;6.632;2023-01-10T12:27:10;19.30;;;4.00;;
39346;SDS011;26262;49.836;6.632;2023-01-10T12:29:40;14.40;;;2.90;;
39346;SDS011;26262;49.836;6.632;2023-01-10T12:32:13;15.07;;;3.08;;
39346;SDS011;26262;49.836;6.632;2023-01-10T12:34:46;10.75;;;2.75;;
39346;SDS011;26262;49.836;6.632;2023-01-10T12:37:21;18.00;;;4.75;;
39346;SDS011;26262;49.836;6.632;2023-01-10T12:40:01;15.13;;;2.80;;
39346;SDS011;26262;49.836;6.632;2023-01-10T12:42:54;14.85;;;2.63;;
39346;SDS011;26262;49.836;6.632;2023-01-10T12:45:51;14.65;;;3.25;;
39346;SDS011;26262;49.836;6.632;2023-01-10T12:50:55;16.48;;;3.60;;
39346;SDS011;26262;49.836;6.632;2023-01-10T12:56:00;16.70;;;3.13;;
39346;SDS011;26262;49.836;6.632;2023-01-10T12:58:33;13.10;;;3.20;;
39346;SDS011;26262;49.836;6.632;2023-01-10T13:01:09;16.08;;;3.53;;
39346;SDS011;26262;49.836;6.632;2023-01-10T13:03:38;16.02;;;2.70;;
39346;SDS011;26262;49.836;6.632;2023-01-10T13:06:04;13.07;;;3.47;;
39346;SDS011;26262;49.836;6.632;2023-01-10T13:08:33;12.80;;;3.35;;
39346;SDS011;26262;49.836;6.632;2023-01-10T13:11:01;16.88;;;3.72;;
39346;SDS011;26262;49.836;6.632;2023-01-10T13:13:34;16.48;;;3.72;;
39346;SDS011;26262;49.836;6.632;2023-01-10T13:16:15;14.73;;;3.65;;
39346;SDS011;26262;49.836;6.632;2023-01-10T13:21:35;13.32;;;3.28;;
39346;SDS011;26262;49.836;6.632;2023-01-10T13:29:17;18.70;;;3.22;;
39346;SDS011;26262;49.836;6.632;2023-01-10T13:31:46;14.90;;;3.25;;
39346;SDS011;26262;49.836;6.632;2023-01-10T13:34:14;19.88;;;2.83;;
39346;SDS011;26262;49.836;6.632;2023-01-10T13:36:41;13.65;;;3.00;;
39346;SDS011;26262;49.836;6.632;2023-01-10T13:52:50;12.65;;;2.72;;
39346;SDS011;26262;49.836;6.632;2023-01-10T13:55:21;18.38;;;3.97;;
39346;SDS011;26262;49.836;6.632;2023-01-10T13:57:50;16.83;;;2.95;;
39346;SDS011;26262;49.836;6.632;2023-01-10T14:00:24;14.88;;;4.25;;
39346;SDS011;26262;49.836;6.632;2023-01-10T14:08:55;12.77;;;2.97;;
39346;SDS011;26262;49.836;6.632;2023-01-10T14:11:24;14.35;;;3.60;;
39346;SDS011;26262;49.836;6.632;2023-01-10T14:13:54;19.45;;;5.18;;
39346;SDS011;26262;49.836;6.632;2023-01-10T14:16:25;12.95;;;3.70;;
39346;SDS011;26262;49.836;6.632;2023-01-10T14:18:59;8.25;;;2.30;;
39346;SDS011;26262;49.836;6.632;2023-01-10T14:21:28;12.65;;;3.20;;
39346;SDS011;26262;49.836;6.632;2023-01-10T14:23:55;14.75;;;2.90;;
39346;SDS011;26262;49.836;6.632;2023-01-10T14:26:32;11.77;;;3.05;;
39346;SDS011;26262;49.836;6.632;2023-01-10T14:29:01;15.98;;;3.50;;
39346;SDS011;26262;49.836;6.632;2023-01-10T14:31:37;17.27;;;2.75;;
39346;SDS011;26262;49.836;6.632;2023-01-10T14:34:09;10.80;;;2.80;;
39346;SDS011;26262;49.836;6.632;2023-01-10T14:36:43;16.25;;;4.47;;
39346;SDS011;26262;49.836;6.632;2023-01-10T14:39:17;10.98;;;2.75;;
39346;SDS011;26262;49.836;6.632;2023-01-10T14:41:44;15.57;;;3.40;;
39346;SDS011;26262;49.836;6.632;2023-01-10T14:47:02;15.23;;;2.88;;
39346;SDS011;26262;49.836;6.632;2023-01-10T14:51:55;17.75;;;2.97;;
39346;SDS011;26262;49.836;6.632;2023-01-10T14:54:43;11.85;;;2.50;;
39346;SDS011;26262;49.836;6.632;2023-01-10T14:57:19;12.95;;;3.22;;
39346;SDS011;26262;49.836;6.632;2023-01-10T14:59:47;13.00;;;3.22;;
39346;SDS011;26262;49.836;6.632;2023-01-10T15:05:00;15.75;;;2.88;;
39346;SDS011;26262;49.836;6.632;2023-01-10T15:07:39;24.85;;;3.70;;
39346;SDS011;26262;49.836;6.632;2023-01-10T15:12:51;13.13;;;4.22;;
39346;SDS011;26262;49.836;6.632;2023-01-10T15:15:31;12.15;;;2.80;;
39346;SDS011;26262;49.836;6.632;2023-01-10T15:17:58;18.08;;;4.28;;
39346;SDS011;26262;49.836;6.632;2023-01-10T15:22:53;18.10;;;3.00;;
39346;SDS011;26262;49.836;6.632;2023-01-10T15:27:55;20.65;;;3.03;;
39346;SDS011;26262;49.836;6.632;2023-01-10T15:30:27;16.75;;;3.40;;
39346;SDS011;26262;49.836;6.632;2023-01-10T15:32:55;16.67;;;2.60;;
39346;SDS011;26262;49.836;6.632;2023-01-10T15:35:26;13.75;;;2.75;;
39346;SDS011;26262;49.836;6.632;2023-01-10T15:37:55;13.25;;;3.03;;
39346;SDS011;26262;49.836;6.632;2023-01-10T15:40:41;15.45;;;3.05;;
39346;SDS011;26262;49.836;6.632;2023-01-10T15:45:45;15.55;;;3.17;;
39346;SDS011;26262;49.836;6.632;2023-01-10T15:51:12;12.70;;;2.72;;
39346;SDS011;26262;49.836;6.632;2023-01-10T15:56:25;21.60;;;4.75;;
39346;SDS011;26262;49.836;6.632;2023-01-10T15:58:53;15.25;;;4.00;;
39346;SDS011;26262;49.836;6.632;2023-01-10T16:01:20;19.73;;;5.35;;
39346;SDS011;26262;49.836;6.632;2023-01-10T16:03:47;18.50;;;3.25;;
39346;SDS011;26262;49.836;6.632;2023-01-10T16:06:22;15.48;;;3.50;;
39346;SDS011;26262;49.836;6.632;2023-01-10T16:08:49;12.48;;;2.65;;
39346;SDS011;26262;49.836;6.632;2023-01-10T16:11:21;10.27;;;2.58;;
39346;SDS011;26262;49.836;6.632;2023-01-10T16:14:08;15.55;;;3.65;;
39346;SDS011;26262;49.836;6.632;2023-01-10T16:16:34;12.65;;;2.95;;
39346;SDS011;26262;49.836;6.632;2023-01-10T16:18:59;10.05;;;2.60;;
39346;SDS011;26262;49.836;6.632;2023-01-10T16:21:31;13.30;;;3.45;;
39346;SDS011;26262;49.836;6.632;2023-01-10T16:24:03;7.88;;;2.13;;
39346;SDS011;26262;49.836;6.632;2023-01-10T16:26:29;13.32;;;3.00;;
39346;SDS011;26262;49.836;6.632;2023-01-10T16:28:55;14.30;;;3.13;;
39346;SDS011;26262;49.836;6.632;2023-01-10T16:31:20;14.57;;;4.22;;
39346;SDS011;26262;49.836;6.632;2023-01-10T16:33:46;13.13;;;3.25;;
39346;SDS011;26262;49.836;6.632;2023-01-10T16:36:15;15.35;;;2.83;;
39346;SDS011;26262;49.836;6.632;2023-01-10T16:38:42;12.38;;;2.65;;
39346;SDS011;26262;49.836;6.632;2023-01-10T16:41:09;16.60;;;3.90;;
39346;SDS011;26262;49.836;6.632;2023-01-10T16:43:55;21.40;;;7.57;;
39346;SDS011;26262;49.836;6.632;2023-01-10T16:46:20;15.63;;;4.55;;
39346;SDS011;26262;49.836;6.632;2023-01-10T16:48:47;18.25;;;4.60;;
39346;SDS011;26262;49.836;6.632;2023-01-10T16:53:47;14.93;;;4.20;;
39346;SDS011;26262;49.836;6.632;2023-01-10T16:56:14;10.98;;;3.20;;
39346;SDS011;26262;49.836;6.632;2023-01-10T16:58:43;11.45;;;3.60;;
39346;SDS011;26262;49.836;6.632;2023-01-10T17:01:14;15.52;;;3.20;;
39346;SDS011;26262;49.836;6.632;2023-01-10T17:06:14;17.20;;;4.32;;
39346;SDS011;26262;49.836;6.632;2023-01-10T17:08:40;17.05;;;3.35;;